Terminal Aerodrome Forecast
Issued by NWS

Home | Current Version | Previous Version | Text Only | Print | Product List | Glossary On
Versions: 1 2 3 4 5 6 7 8 9 10
000
FTUS45 KVEF 221700
TAFEED
TAF
KEED 221732Z 2218/2318 36010KT P6SM FEW250
     FM222100 01014G22KT P6SM FEW250
     FM230100 33008KT P6SM SKC
     FM230600 35012KT P6SM SKC=

USA.gov is the U.S. government's official web portal to all federal, state and local government web resources and services.